sensor_id;sensor_type;location;lat;lon;timestamp;P1;durP1;ratioP1;P2;durP2;ratioP2
40907;SDS011;51055;59.436;24.778;2022-10-16T00:01:23;42.70;;;28.50;;
40907;SDS011;51055;59.436;24.778;2022-10-16T00:03:53;41.17;;;28.92;;
40907;SDS011;51055;59.436;24.778;2022-10-16T00:06:22;42.00;;;29.88;;
40907;SDS011;51055;59.436;24.778;2022-10-16T00:08:51;46.30;;;30.25;;
40907;SDS011;51055;59.436;24.778;2022-10-16T00:11:21;39.17;;;27.60;;
40907;SDS011;51055;59.436;24.778;2022-10-16T00:13:54;38.17;;;27.27;;
40907;SDS011;51055;59.436;24.778;2022-10-16T00:16:25;40.72;;;27.75;;
40907;SDS011;51055;59.436;24.778;2022-10-16T00:18:53;34.83;;;25.23;;
40907;SDS011;51055;59.436;24.778;2022-10-16T00:21:25;35.83;;;26.47;;
40907;SDS011;51055;59.436;24.778;2022-10-16T00:23:56;36.28;;;26.73;;
40907;SDS011;51055;59.436;24.778;2022-10-16T00:26:27;36.67;;;26.17;;
40907;SDS011;51055;59.436;24.778;2022-10-16T00:28:56;35.65;;;24.38;;
40907;SDS011;51055;59.436;24.778;2022-10-16T00:31:24;34.92;;;23.80;;
40907;SDS011;51055;59.436;24.778;2022-10-16T00:33:52;32.28;;;22.67;;
40907;SDS011;51055;59.436;24.778;2022-10-16T00:36:20;33.78;;;22.17;;
40907;SDS011;51055;59.436;24.778;2022-10-16T00:38:53;29.45;;;22.48;;
40907;SDS011;51055;59.436;24.778;2022-10-16T00:41:22;29.10;;;21.45;;
40907;SDS011;51055;59.436;24.778;2022-10-16T00:43:55;30.75;;;20.95;;
40907;SDS011;51055;59.436;24.778;2022-10-16T00:51:23;26.30;;;19.88;;
40907;SDS011;51055;59.436;24.778;2022-10-16T00:53:55;29.45;;;20.23;;
40907;SDS011;51055;59.436;24.778;2022-10-16T00:56:23;29.85;;;20.20;;
40907;SDS011;51055;59.436;24.778;2022-10-16T00:58:50;26.55;;;19.83;;
40907;SDS011;51055;59.436;24.778;2022-10-16T01:01:18;28.90;;;20.65;;
40907;SDS011;51055;59.436;24.778;2022-10-16T01:03:46;25.85;;;18.85;;
40907;SDS011;51055;59.436;24.778;2022-10-16T01:14:46;26.15;;;19.83;;
40907;SDS011;51055;59.436;24.778;2022-10-16T01:17:22;25.02;;;20.10;;
40907;SDS011;51055;59.436;24.778;2022-10-16T01:20:33;25.42;;;18.58;;
40907;SDS011;51055;59.436;24.778;2022-10-16T01:23:13;29.65;;;19.55;;
40907;SDS011;51055;59.436;24.778;2022-10-16T01:29:12;24.23;;;19.38;;
40907;SDS011;51055;59.436;24.778;2022-10-16T01:31:44;27.67;;;19.15;;
40907;SDS011;51055;59.436;24.778;2022-10-16T01:34:51;27.83;;;19.45;;
40907;SDS011;51055;59.436;24.778;2022-10-16T01:37:26;25.98;;;18.20;;
40907;SDS011;51055;59.436;24.778;2022-10-16T01:40:00;25.33;;;18.83;;
40907;SDS011;51055;59.436;24.778;2022-10-16T01:42:36;27.20;;;19.23;;
40907;SDS011;51055;59.436;24.778;2022-10-16T01:45:11;25.65;;;18.83;;
40907;SDS011;51055;59.436;24.778;2022-10-16T01:47:42;27.13;;;19.17;;
40907;SDS011;51055;59.436;24.778;2022-10-16T01:50:10;25.42;;;18.80;;
40907;SDS011;51055;59.436;24.778;2022-10-16T01:52:42;26.38;;;18.35;;
40907;SDS011;51055;59.436;24.778;2022-10-16T01:55:14;23.92;;;18.23;;
40907;SDS011;51055;59.436;24.778;2022-10-16T01:57:47;23.15;;;18.05;;
40907;SDS011;51055;59.436;24.778;2022-10-16T02:00:19;23.63;;;18.75;;
40907;SDS011;51055;59.436;24.778;2022-10-16T02:02:49;22.85;;;17.95;;
40907;SDS011;51055;59.436;24.778;2022-10-16T02:05:25;24.65;;;18.35;;
40907;SDS011;51055;59.436;24.778;2022-10-16T02:07:58;24.45;;;17.42;;
40907;SDS011;51055;59.436;24.778;2022-10-16T02:10:32;26.85;;;18.40;;
40907;SDS011;51055;59.436;24.778;2022-10-16T02:13:13;23.63;;;18.15;;
40907;SDS011;51055;59.436;24.778;2022-10-16T02:15:46;23.67;;;17.95;;
40907;SDS011;51055;59.436;24.778;2022-10-16T02:18:14;22.92;;;17.80;;
40907;SDS011;51055;59.436;24.778;2022-10-16T02:20:44;23.13;;;18.45;;
40907;SDS011;51055;59.436;24.778;2022-10-16T02:23:36;27.90;;;18.98;;
40907;SDS011;51055;59.436;24.778;2022-10-16T02:26:09;23.73;;;18.20;;
40907;SDS011;51055;59.436;24.778;2022-10-16T02:28:42;23.90;;;18.17;;
40907;SDS011;51055;59.436;24.778;2022-10-16T02:31:18;24.48;;;17.08;;
40907;SDS011;51055;59.436;24.778;2022-10-16T02:33:51;25.63;;;17.95;;
40907;SDS011;51055;59.436;24.778;2022-10-16T02:36:21;23.75;;;17.65;;
40907;SDS011;51055;59.436;24.778;2022-10-16T02:38:50;24.93;;;18.43;;
40907;SDS011;51055;59.436;24.778;2022-10-16T02:41:18;29.48;;;18.98;;
40907;SDS011;51055;59.436;24.778;2022-10-16T02:43:47;27.13;;;19.13;;
40907;SDS011;51055;59.436;24.778;2022-10-16T02:46:16;25.55;;;19.38;;
40907;SDS011;51055;59.436;24.778;2022-10-16T02:48:44;23.30;;;18.30;;
40907;SDS011;51055;59.436;24.778;2022-10-16T02:51:12;25.70;;;18.92;;
40907;SDS011;51055;59.436;24.778;2022-10-16T02:53:40;28.48;;;19.80;;
40907;SDS011;51055;59.436;24.778;2022-10-16T02:56:07;23.63;;;18.58;;
40907;SDS011;51055;59.436;24.778;2022-10-16T02:58:35;25.88;;;19.80;;
40907;SDS011;51055;59.436;24.778;2022-10-16T03:01:02;25.98;;;19.70;;
40907;SDS011;51055;59.436;24.778;2022-10-16T03:03:30;28.73;;;19.52;;
40907;SDS011;51055;59.436;24.778;2022-10-16T03:05:57;23.30;;;19.20;;
40907;SDS011;51055;59.436;24.778;2022-10-16T03:08:25;25.50;;;18.98;;
40907;SDS011;51055;59.436;24.778;2022-10-16T03:10:53;26.38;;;19.20;;
40907;SDS011;51055;59.436;24.778;2022-10-16T03:13:20;26.80;;;19.55;;
40907;SDS011;51055;59.436;24.778;2022-10-16T03:15:48;26.90;;;19.30;;
40907;SDS011;51055;59.436;24.778;2022-10-16T03:18:16;24.70;;;18.67;;
40907;SDS011;51055;59.436;24.778;2022-10-16T03:20:43;26.15;;;19.80;;
40907;SDS011;51055;59.436;24.778;2022-10-16T03:23:11;29.77;;;20.95;;
40907;SDS011;51055;59.436;24.778;2022-10-16T03:25:39;27.02;;;19.63;;
40907;SDS011;51055;59.436;24.778;2022-10-16T03:28:06;25.70;;;18.75;;
40907;SDS011;51055;59.436;24.778;2022-10-16T03:30:35;25.30;;;19.52;;
40907;SDS011;51055;59.436;24.778;2022-10-16T03:33:02;25.60;;;19.27;;
40907;SDS011;51055;59.436;24.778;2022-10-16T03:35:30;28.13;;;19.63;;
40907;SDS011;51055;59.436;24.778;2022-10-16T03:37:58;25.45;;;19.17;;
40907;SDS011;51055;59.436;24.778;2022-10-16T03:40:25;26.98;;;19.13;;
40907;SDS011;51055;59.436;24.778;2022-10-16T03:42:53;24.67;;;18.92;;
40907;SDS011;51055;59.436;24.778;2022-10-16T03:45:24;25.50;;;18.80;;
40907;SDS011;51055;59.436;24.778;2022-10-16T03:47:53;26.88;;;19.98;;
40907;SDS011;51055;59.436;24.778;2022-10-16T03:50:20;27.35;;;19.23;;
40907;SDS011;51055;59.436;24.778;2022-10-16T03:52:48;24.75;;;19.33;;
40907;SDS011;51055;59.436;24.778;2022-10-16T03:55:16;27.65;;;20.15;;
40907;SDS011;51055;59.436;24.778;2022-10-16T03:57:44;26.53;;;21.20;;
40907;SDS011;51055;59.436;24.778;2022-10-16T04:00:12;27.30;;;20.33;;
40907;SDS011;51055;59.436;24.778;2022-10-16T04:02:40;33.30;;;20.77;;
40907;SDS011;51055;59.436;24.778;2022-10-16T04:05:08;26.75;;;20.30;;
40907;SDS011;51055;59.436;24.778;2022-10-16T04:07:36;28.77;;;20.33;;
40907;SDS011;51055;59.436;24.778;2022-10-16T04:10:07;24.77;;;19.65;;
40907;SDS011;51055;59.436;24.778;2022-10-16T04:12:35;27.93;;;20.70;;
40907;SDS011;51055;59.436;24.778;2022-10-16T04:15:03;26.38;;;18.48;;
40907;SDS011;51055;59.436;24.778;2022-10-16T04:17:30;23.38;;;18.88;;
40907;SDS011;51055;59.436;24.778;2022-10-16T04:19:58;23.98;;;18.30;;
40907;SDS011;51055;59.436;24.778;2022-10-16T04:22:26;23.40;;;18.10;;
40907;SDS011;51055;59.436;24.778;2022-10-16T04:24:58;22.65;;;17.85;;
40907;SDS011;51055;59.436;24.778;2022-10-16T04:27:26;23.13;;;17.77;;
40907;SDS011;51055;59.436;24.778;2022-10-16T04:29:54;24.63;;;16.42;;
40907;SDS011;51055;59.436;24.778;2022-10-16T04:32:22;21.48;;;17.25;;
40907;SDS011;51055;59.436;24.778;2022-10-16T04:34:50;24.08;;;16.95;;
40907;SDS011;51055;59.436;24.778;2022-10-16T04:37:18;22.20;;;17.23;;
40907;SDS011;51055;59.436;24.778;2022-10-16T04:39:46;20.95;;;16.08;;
40907;SDS011;51055;59.436;24.778;2022-10-16T04:42:13;21.92;;;15.95;;
40907;SDS011;51055;59.436;24.778;2022-10-16T04:44:41;22.33;;;16.33;;
40907;SDS011;51055;59.436;24.778;2022-10-16T04:47:17;24.48;;;16.90;;
40907;SDS011;51055;59.436;24.778;2022-10-16T04:49:45;21.80;;;16.40;;
40907;SDS011;51055;59.436;24.778;2022-10-16T04:52:12;22.83;;;17.17;;
40907;SDS011;51055;59.436;24.778;2022-10-16T04:54:40;26.45;;;18.58;;
40907;SDS011;51055;59.436;24.778;2022-10-16T04:57:07;23.67;;;17.50;;
40907;SDS011;51055;59.436;24.778;2022-10-16T04:59:35;26.05;;;18.30;;
40907;SDS011;51055;59.436;24.778;2022-10-16T05:02:03;22.58;;;17.55;;
40907;SDS011;51055;59.436;24.778;2022-10-16T05:04:31;25.15;;;18.23;;
40907;SDS011;51055;59.436;24.778;2022-10-16T05:06:58;24.55;;;18.30;;
40907;SDS011;51055;59.436;24.778;2022-10-16T05:09:26;23.63;;;17.00;;
40907;SDS011;51055;59.436;24.778;2022-10-16T05:11:54;26.25;;;17.65;;
40907;SDS011;51055;59.436;24.778;2022-10-16T05:14:22;21.30;;;17.05;;
40907;SDS011;51055;59.436;24.778;2022-10-16T05:16:49;24.17;;;17.08;;
40907;SDS011;51055;59.436;24.778;2022-10-16T05:19:17;24.08;;;18.13;;
40907;SDS011;51055;59.436;24.778;2022-10-16T05:21:54;23.90;;;17.48;;
40907;SDS011;51055;59.436;24.778;2022-10-16T05:24:22;23.08;;;17.25;;
40907;SDS011;51055;59.436;24.778;2022-10-16T05:26:50;24.77;;;17.33;;
40907;SDS011;51055;59.436;24.778;2022-10-16T05:29:18;18.42;;;13.25;;
40907;SDS011;51055;59.436;24.778;2022-10-16T05:31:46;22.50;;;16.98;;
40907;SDS011;51055;59.436;24.778;2022-10-16T05:34:16;21.00;;;17.27;;
40907;SDS011;51055;59.436;24.778;2022-10-16T05:36:44;25.67;;;18.63;;
40907;SDS011;51055;59.436;24.778;2022-10-16T05:39:13;26.63;;;19.67;;
40907;SDS011;51055;59.436;24.778;2022-10-16T05:41:42;29.08;;;20.80;;
40907;SDS011;51055;59.436;24.778;2022-10-16T05:44:10;28.13;;;21.05;;
40907;SDS011;51055;59.436;24.778;2022-10-16T05:46:38;32.90;;;21.83;;
40907;SDS011;51055;59.436;24.778;2022-10-16T05:49:06;30.77;;;22.40;;
40907;SDS011;51055;59.436;24.778;2022-10-16T05:51:33;32.85;;;22.00;;
40907;SDS011;51055;59.436;24.778;2022-10-16T05:54:01;35.90;;;22.95;;
40907;SDS011;51055;59.436;24.778;2022-10-16T05:56:29;33.25;;;22.25;;
40907;SDS011;51055;59.436;24.778;2022-10-16T05:58:56;32.92;;;21.90;;
40907;SDS011;51055;59.436;24.778;2022-10-16T06:01:24;27.98;;;20.42;;
40907;SDS011;51055;59.436;24.778;2022-10-16T06:03:52;30.73;;;21.80;;
40907;SDS011;51055;59.436;24.778;2022-10-16T06:06:21;27.93;;;20.70;;
40907;SDS011;51055;59.436;24.778;2022-10-16T06:08:51;27.38;;;20.08;;
40907;SDS011;51055;59.436;24.778;2022-10-16T06:11:24;27.67;;;20.17;;
40907;SDS011;51055;59.436;24.778;2022-10-16T06:13:55;28.77;;;20.90;;
40907;SDS011;51055;59.436;24.778;2022-10-16T06:16:25;31.58;;;20.38;;
40907;SDS011;51055;59.436;24.778;2022-10-16T06:21:27;32.58;;;21.30;;
40907;SDS011;51055;59.436;24.778;2022-10-16T06:23:56;31.50;;;21.33;;
40907;SDS011;51055;59.436;24.778;2022-10-16T06:26:25;30.48;;;22.15;;
40907;SDS011;51055;59.436;24.778;2022-10-16T06:28:54;32.90;;;21.45;;
40907;SDS011;51055;59.436;24.778;2022-10-16T06:31:23;31.98;;;22.20;;
40907;SDS011;51055;59.436;24.778;2022-10-16T06:33:54;35.40;;;22.52;;
40907;SDS011;51055;59.436;24.778;2022-10-16T06:36:24;34.45;;;23.02;;
40907;SDS011;51055;59.436;24.778;2022-10-16T06:38:52;35.42;;;24.05;;
40907;SDS011;51055;59.436;24.778;2022-10-16T06:41:21;36.42;;;23.55;;
40907;SDS011;51055;59.436;24.778;2022-10-16T06:43:50;38.60;;;24.38;;
40907;SDS011;51055;59.436;24.778;2022-10-16T06:46:19;37.22;;;24.38;;
40907;SDS011;51055;59.436;24.778;2022-10-16T06:48:49;36.40;;;23.70;;
40907;SDS011;51055;59.436;24.778;2022-10-16T06:51:18;32.45;;;23.23;;
40907;SDS011;51055;59.436;24.778;2022-10-16T06:53:50;32.42;;;23.13;;
40907;SDS011;51055;59.436;24.778;2022-10-16T06:56:30;40.97;;;23.75;;
40907;SDS011;51055;59.436;24.778;2022-10-16T06:58:59;37.17;;;23.92;;
40907;SDS011;51055;59.436;24.778;2022-10-16T07:01:26;35.42;;;25.17;;
40907;SDS011;51055;59.436;24.778;2022-10-16T07:03:55;34.65;;;24.48;;
40907;SDS011;51055;59.436;24.778;2022-10-16T07:06:23;32.88;;;24.00;;
40907;SDS011;51055;59.436;24.778;2022-10-16T07:08:51;34.42;;;23.58;;
40907;SDS011;51055;59.436;24.778;2022-10-16T07:11:20;36.92;;;25.40;;
40907;SDS011;51055;59.436;24.778;2022-10-16T07:13:50;37.75;;;26.20;;
40907;SDS011;51055;59.436;24.778;2022-10-16T07:16:23;36.58;;;25.20;;
40907;SDS011;51055;59.436;24.778;2022-10-16T07:18:53;36.88;;;25.70;;
40907;SDS011;51055;59.436;24.778;2022-10-16T07:21:27;38.50;;;25.10;;
40907;SDS011;51055;59.436;24.778;2022-10-16T07:24:06;40.30;;;25.48;;
40907;SDS011;51055;59.436;24.778;2022-10-16T07:26:38;39.28;;;25.92;;
40907;SDS011;51055;59.436;24.778;2022-10-16T07:29:07;40.10;;;25.58;;
40907;SDS011;51055;59.436;24.778;2022-10-16T07:31:39;37.28;;;25.77;;
40907;SDS011;51055;59.436;24.778;2022-10-16T07:34:07;36.67;;;25.60;;
40907;SDS011;51055;59.436;24.778;2022-10-16T07:36:34;42.40;;;27.02;;
40907;SDS011;51055;59.436;24.778;2022-10-16T07:39:02;36.67;;;26.20;;
40907;SDS011;51055;59.436;24.778;2022-10-16T07:41:30;36.92;;;24.67;;
40907;SDS011;51055;59.436;24.778;2022-10-16T07:44:00;37.28;;;24.35;;
40907;SDS011;51055;59.436;24.778;2022-10-16T07:46:28;34.45;;;23.70;;
40907;SDS011;51055;59.436;24.778;2022-10-16T07:48:56;38.78;;;24.67;;
40907;SDS011;51055;59.436;24.778;2022-10-16T07:51:24;38.58;;;23.90;;
40907;SDS011;51055;59.436;24.778;2022-10-16T07:56:21;32.38;;;21.45;;
40907;SDS011;51055;59.436;24.778;2022-10-16T07:58:49;32.60;;;21.48;;
40907;SDS011;51055;59.436;24.778;2022-10-16T08:01:18;34.72;;;22.58;;
40907;SDS011;51055;59.436;24.778;2022-10-16T08:03:47;31.75;;;21.42;;
40907;SDS011;51055;59.436;24.778;2022-10-16T08:06:17;29.83;;;21.65;;
40907;SDS011;51055;59.436;24.778;2022-10-16T08:08:51;28.50;;;20.98;;
40907;SDS011;51055;59.436;24.778;2022-10-16T08:11:18;28.00;;;19.50;;
40907;SDS011;51055;59.436;24.778;2022-10-16T08:13:46;29.10;;;20.00;;
40907;SDS011;51055;59.436;24.778;2022-10-16T08:16:14;27.75;;;19.00;;
40907;SDS011;51055;59.436;24.778;2022-10-16T08:18:42;28.40;;;19.73;;
40907;SDS011;51055;59.436;24.778;2022-10-16T08:21:12;29.60;;;19.88;;
40907;SDS011;51055;59.436;24.778;2022-10-16T08:23:47;27.52;;;19.83;;
40907;SDS011;51055;59.436;24.778;2022-10-16T08:26:23;28.35;;;20.70;;
40907;SDS011;51055;59.436;24.778;2022-10-16T08:28:51;30.30;;;21.20;;
40907;SDS011;51055;59.436;24.778;2022-10-16T08:31:19;29.77;;;21.65;;
40907;SDS011;51055;59.436;24.778;2022-10-16T08:33:47;31.77;;;22.52;;
40907;SDS011;51055;59.436;24.778;2022-10-16T08:36:15;29.27;;;20.13;;
40907;SDS011;51055;59.436;24.778;2022-10-16T08:38:43;27.65;;;20.17;;
40907;SDS011;51055;59.436;24.778;2022-10-16T08:49:58;31.55;;;22.08;;
40907;SDS011;51055;59.436;24.778;2022-10-16T08:52:29;33.15;;;22.08;;
40907;SDS011;51055;59.436;24.778;2022-10-16T08:55:01;33.30;;;23.08;;
40907;SDS011;51055;59.436;24.778;2022-10-16T08:57:29;35.90;;;22.98;;
40907;SDS011;51055;59.436;24.778;2022-10-16T09:00:08;32.45;;;23.15;;
40907;SDS011;51055;59.436;24.778;2022-10-16T09:02:43;34.78;;;24.65;;
40907;SDS011;51055;59.436;24.778;2022-10-16T09:11:18;35.33;;;24.27;;
40907;SDS011;51055;59.436;24.778;2022-10-16T09:16:52;32.30;;;23.75;;
40907;SDS011;51055;59.436;24.778;2022-10-16T09:19:28;31.83;;;23.25;;
40907;SDS011;51055;59.436;24.778;2022-10-16T09:22:02;31.05;;;22.42;;
40907;SDS011;51055;59.436;24.778;2022-10-16T09:24:45;33.13;;;23.05;;
40907;SDS011;51055;59.436;24.778;2022-10-16T09:27:13;31.88;;;23.13;;
40907;SDS011;51055;59.436;24.778;2022-10-16T09:29:42;30.77;;;22.98;;
40907;SDS011;51055;59.436;24.778;2022-10-16T09:32:11;33.75;;;24.50;;
40907;SDS011;51055;59.436;24.778;2022-10-16T09:34:42;33.20;;;23.50;;
40907;SDS011;51055;59.436;24.778;2022-10-16T09:37:14;33.92;;;24.20;;
40907;SDS011;51055;59.436;24.778;2022-10-16T09:39:47;33.10;;;24.10;;
40907;SDS011;51055;59.436;24.778;2022-10-16T09:42:32;32.13;;;23.33;;
40907;SDS011;51055;59.436;24.778;2022-10-16T09:45:04;28.10;;;22.20;;
40907;SDS011;51055;59.436;24.778;2022-10-16T09:47:32;34.28;;;23.35;;
40907;SDS011;51055;59.436;24.778;2022-10-16T09:50:26;35.08;;;23.65;;
40907;SDS011;51055;59.436;24.778;2022-10-16T09:53:05;30.20;;;22.42;;
40907;SDS011;51055;59.436;24.778;2022-10-16T09:55:52;30.65;;;23.40;;
40907;SDS011;51055;59.436;24.778;2022-10-16T09:58:21;33.72;;;21.67;;
40907;SDS011;51055;59.436;24.778;2022-10-16T10:00:51;30.27;;;22.42;;
40907;SDS011;51055;59.436;24.778;2022-10-16T10:03:33;31.27;;;22.23;;
40907;SDS011;51055;59.436;24.778;2022-10-16T10:06:13;29.20;;;21.70;;
40907;SDS011;51055;59.436;24.778;2022-10-16T10:11:38;27.65;;;21.13;;
40907;SDS011;51055;59.436;24.778;2022-10-16T10:14:22;28.15;;;21.52;;
40907;SDS011;51055;59.436;24.778;2022-10-16T10:16:51;27.35;;;21.42;;
40907;SDS011;51055;59.436;24.778;2022-10-16T10:19:21;26.05;;;21.38;;
40907;SDS011;51055;59.436;24.778;2022-10-16T10:21:55;28.60;;;21.08;;
40907;SDS011;51055;59.436;24.778;2022-10-16T10:24:22;34.05;;;21.75;;
40907;SDS011;51055;59.436;24.778;2022-10-16T10:26:58;25.98;;;20.85;;
40907;SDS011;51055;59.436;24.778;2022-10-16T10:32:35;24.50;;;19.63;;
40907;SDS011;51055;59.436;24.778;2022-10-16T10:35:16;26.83;;;20.08;;
40907;SDS011;51055;59.436;24.778;2022-10-16T10:38:07;25.02;;;20.20;;
40907;SDS011;51055;59.436;24.778;2022-10-16T10:46:14;25.83;;;20.20;;
40907;SDS011;51055;59.436;24.778;2022-10-16T10:57:34;27.35;;;19.45;;
40907;SDS011;51055;59.436;24.778;2022-10-16T11:00:30;26.02;;;19.13;;
40907;SDS011;51055;59.436;24.778;2022-10-16T11:06:26;25.27;;;18.52;;
40907;SDS011;51055;59.436;24.778;2022-10-16T11:11:41;26.42;;;19.88;;
40907;SDS011;51055;59.436;24.778;2022-10-16T11:14:19;24.00;;;18.35;;
40907;SDS011;51055;59.436;24.778;2022-10-16T11:16:57;22.73;;;17.13;;
40907;SDS011;51055;59.436;24.778;2022-10-16T11:27:14;24.80;;;17.15;;
40907;SDS011;51055;59.436;24.778;2022-10-16T11:29:49;25.42;;;17.45;;
40907;SDS011;51055;59.436;24.778;2022-10-16T11:32:25;23.58;;;17.33;;
40907;SDS011;51055;59.436;24.778;2022-10-16T11:35:00;22.20;;;17.48;;
40907;SDS011;51055;59.436;24.778;2022-10-16T11:37:39;23.30;;;18.08;;
40907;SDS011;51055;59.436;24.778;2022-10-16T11:40:32;24.13;;;17.70;;
40907;SDS011;51055;59.436;24.778;2022-10-16T11:43:03;23.88;;;17.65;;
40907;SDS011;51055;59.436;24.778;2022-10-16T11:45:44;23.45;;;18.55;;
40907;SDS011;51055;59.436;24.778;2022-10-16T11:51:05;26.13;;;18.35;;
40907;SDS011;51055;59.436;24.778;2022-10-16T11:53:46;26.02;;;18.80;;
40907;SDS011;51055;59.436;24.778;2022-10-16T11:56:23;24.92;;;19.00;;
40907;SDS011;51055;59.436;24.778;2022-10-16T12:08:08;26.70;;;18.92;;
40907;SDS011;51055;59.436;24.778;2022-10-16T12:10:38;22.95;;;18.13;;
40907;SDS011;51055;59.436;24.778;2022-10-16T12:16:31;26.27;;;20.10;;
40907;SDS011;51055;59.436;24.778;2022-10-16T12:19:02;30.35;;;22.00;;
40907;SDS011;51055;59.436;24.778;2022-10-16T12:21:51;27.55;;;20.98;;
40907;SDS011;51055;59.436;24.778;2022-10-16T12:27:00;30.08;;;21.70;;
40907;SDS011;51055;59.436;24.778;2022-10-16T12:35:22;34.25;;;23.38;;
40907;SDS011;51055;59.436;24.778;2022-10-16T12:37:52;30.90;;;23.42;;
40907;SDS011;51055;59.436;24.778;2022-10-16T12:40:25;33.17;;;24.70;;
40907;SDS011;51055;59.436;24.778;2022-10-16T12:42:56;30.70;;;23.05;;
40907;SDS011;51055;59.436;24.778;2022-10-16T12:45:26;32.60;;;24.20;;
40907;SDS011;51055;59.436;24.778;2022-10-16T12:47:59;36.58;;;24.77;;
40907;SDS011;51055;59.436;24.778;2022-10-16T12:53:16;32.67;;;23.85;;
40907;SDS011;51055;59.436;24.778;2022-10-16T13:04:14;36.05;;;24.95;;
40907;SDS011;51055;59.436;24.778;2022-10-16T13:17:37;30.73;;;21.95;;
40907;SDS011;51055;59.436;24.778;2022-10-16T13:20:30;27.80;;;21.38;;
40907;SDS011;51055;59.436;24.778;2022-10-16T13:28:53;25.85;;;20.55;;
40907;SDS011;51055;59.436;24.778;2022-10-16T13:31:26;27.65;;;20.77;;
40907;SDS011;51055;59.436;24.778;2022-10-16T13:33:55;26.08;;;18.92;;
40907;SDS011;51055;59.436;24.778;2022-10-16T13:36:27;24.10;;;17.65;;
40907;SDS011;51055;59.436;24.778;2022-10-16T13:41:27;23.20;;;16.85;;
40907;SDS011;51055;59.436;24.778;2022-10-16T13:43:54;22.90;;;16.30;;
40907;SDS011;51055;59.436;24.778;2022-10-16T13:46:25;23.63;;;17.70;;
40907;SDS011;51055;59.436;24.778;2022-10-16T13:48:57;24.50;;;19.10;;
40907;SDS011;51055;59.436;24.778;2022-10-16T13:51:29;22.40;;;17.80;;
40907;SDS011;51055;59.436;24.778;2022-10-16T13:53:58;22.38;;;17.38;;
40907;SDS011;51055;59.436;24.778;2022-10-16T13:56:28;20.90;;;16.88;;
40907;SDS011;51055;59.436;24.778;2022-10-16T13:59:01;23.60;;;16.90;;
40907;SDS011;51055;59.436;24.778;2022-10-16T14:01:40;22.33;;;16.67;;
40907;SDS011;51055;59.436;24.778;2022-10-16T14:04:11;24.13;;;17.08;;
40907;SDS011;51055;59.436;24.778;2022-10-16T14:06:43;22.63;;;17.27;;
40907;SDS011;51055;59.436;24.778;2022-10-16T14:09:24;25.05;;;17.75;;
40907;SDS011;51055;59.436;24.778;2022-10-16T14:12:08;25.50;;;17.67;;
40907;SDS011;51055;59.436;24.778;2022-10-16T14:14:56;25.98;;;17.92;;
40907;SDS011;51055;59.436;24.778;2022-10-16T14:17:35;24.17;;;18.33;;
40907;SDS011;51055;59.436;24.778;2022-10-16T14:20:04;23.23;;;17.45;;
40907;SDS011;51055;59.436;24.778;2022-10-16T14:27:59;25.45;;;17.70;;
40907;SDS011;51055;59.436;24.778;2022-10-16T14:30:28;24.75;;;18.08;;
40907;SDS011;51055;59.436;24.778;2022-10-16T14:33:01;23.83;;;17.70;;
40907;SDS011;51055;59.436;24.778;2022-10-16T14:35:37;24.80;;;17.92;;
40907;SDS011;51055;59.436;24.778;2022-10-16T14:38:14;23.10;;;17.98;;
40907;SDS011;51055;59.436;24.778;2022-10-16T14:40:47;25.20;;;18.95;;
40907;SDS011;51055;59.436;24.778;2022-10-16T14:43:20;26.00;;;18.42;;
40907;SDS011;51055;59.436;24.778;2022-10-16T14:45:50;25.92;;;18.92;;
40907;SDS011;51055;59.436;24.778;2022-10-16T14:48:20;26.35;;;18.15;;
40907;SDS011;51055;59.436;24.778;2022-10-16T14:50:48;24.13;;;17.45;;
40907;SDS011;51055;59.436;24.778;2022-10-16T14:53:16;25.75;;;17.85;;
40907;SDS011;51055;59.436;24.778;2022-10-16T14:55:43;24.20;;;16.77;;
40907;SDS011;51055;59.436;24.778;2022-10-16T14:58:16;24.27;;;17.75;;
40907;SDS011;51055;59.436;24.778;2022-10-16T15:00:49;26.48;;;18.50;;
40907;SDS011;51055;59.436;24.778;2022-10-16T15:03:17;24.17;;;18.33;;
40907;SDS011;51055;59.436;24.778;2022-10-16T15:05:45;25.15;;;19.13;;
40907;SDS011;51055;59.436;24.778;2022-10-16T15:08:13;22.55;;;17.13;;
40907;SDS011;51055;59.436;24.778;2022-10-16T15:10:42;24.95;;;18.08;;
40907;SDS011;51055;59.436;24.778;2022-10-16T15:13:11;24.60;;;17.52;;
40907;SDS011;51055;59.436;24.778;2022-10-16T15:15:44;26.63;;;18.63;;
40907;SDS011;51055;59.436;24.778;2022-10-16T15:18:13;25.42;;;17.42;;
40907;SDS011;51055;59.436;24.778;2022-10-16T15:20:50;25.58;;;18.40;;
40907;SDS011;51055;59.436;24.778;2022-10-16T15:23:19;25.92;;;18.15;;
40907;SDS011;51055;59.436;24.778;2022-10-16T15:28:19;22.42;;;17.15;;
40907;SDS011;51055;59.436;24.778;2022-10-16T15:30:52;25.85;;;18.65;;
40907;SDS011;51055;59.436;24.778;2022-10-16T15:33:21;24.08;;;18.10;;
40907;SDS011;51055;59.436;24.778;2022-10-16T15:35:51;23.30;;;17.55;;
40907;SDS011;51055;59.436;24.778;2022-10-16T15:38:20;21.45;;;14.32;;
40907;SDS011;51055;59.436;24.778;2022-10-16T15:40:48;25.70;;;18.73;;
40907;SDS011;51055;59.436;24.778;2022-10-16T15:43:17;25.45;;;18.83;;
40907;SDS011;51055;59.436;24.778;2022-10-16T15:46:02;24.63;;;17.45;;
40907;SDS011;51055;59.436;24.778;2022-10-16T15:48:33;23.80;;;17.67;;
40907;SDS011;51055;59.436;24.778;2022-10-16T15:51:03;25.63;;;18.00;;
40907;SDS011;51055;59.436;24.778;2022-10-16T15:53:33;24.50;;;17.52;;
40907;SDS011;51055;59.436;24.778;2022-10-16T15:56:16;23.58;;;17.02;;
40907;SDS011;51055;59.436;24.778;2022-10-16T15:59:17;22.70;;;16.42;;
40907;SDS011;51055;59.436;24.778;2022-10-16T16:02:29;23.52;;;17.05;;
40907;SDS011;51055;59.436;24.778;2022-10-16T16:05:32;28.48;;;17.73;;
40907;SDS011;51055;59.436;24.778;2022-10-16T16:08:10;22.20;;;16.05;;
40907;SDS011;51055;59.436;24.778;2022-10-16T16:11:02;25.05;;;17.33;;
40907;SDS011;51055;59.436;24.778;2022-10-16T16:14:08;22.70;;;15.77;;
40907;SDS011;51055;59.436;24.778;2022-10-16T16:17:07;20.27;;;14.75;;
40907;SDS011;51055;59.436;24.778;2022-10-16T16:20:24;21.73;;;14.77;;
40907;SDS011;51055;59.436;24.778;2022-10-16T16:27:23;20.83;;;13.88;;
40907;SDS011;51055;59.436;24.778;2022-10-16T16:31:07;18.23;;;14.10;;
40907;SDS011;51055;59.436;24.778;2022-10-16T16:34:18;22.13;;;15.32;;
40907;SDS011;51055;59.436;24.778;2022-10-16T16:37:00;22.38;;;16.50;;
40907;SDS011;51055;59.436;24.778;2022-10-16T16:39:28;46.15;;;27.17;;
40907;SDS011;51055;59.436;24.778;2022-10-16T16:41:56;23.10;;;14.63;;
40907;SDS011;51055;59.436;24.778;2022-10-16T16:44:25;25.38;;;16.05;;
40907;SDS011;51055;59.436;24.778;2022-10-16T16:46:53;23.50;;;15.20;;
40907;SDS011;51055;59.436;24.778;2022-10-16T16:49:21;23.88;;;15.63;;
40907;SDS011;51055;59.436;24.778;2022-10-16T16:51:49;28.65;;;18.55;;
40907;SDS011;51055;59.436;24.778;2022-10-16T16:54:17;21.52;;;14.57;;
40907;SDS011;51055;59.436;24.778;2022-10-16T16:56:45;21.47;;;13.53;;
40907;SDS011;51055;59.436;24.778;2022-10-16T16:59:13;19.60;;;13.13;;